Time;durP1;ratioP1;P1;durP2;ratioP2;P2;SDS_P1;SDS_P2;PMS_P1;PMS_P2;Temp;Humidity;BMP_temperature;BMP_pressure;BME280_temperature;BME280_humidity;BME280_pressure;Samples;Min_cycle;Max_cycle;Signal;HPM_P1;HPM_P2
2024/04/01 00:00:59;;;;;;;3.17;0.93;;;;;;;;;;5049013;28;20050;-63
2024/04/01 00:03:25;;;;;;;1.88;0.85;;;;;;;;;;5055109;28;20052;-62
2024/04/01 00:05:52;;;;;;;2.03;0.77;;;;;;;;;;5049511;28;20057;-62
2024/04/01 00:08:20;;;;;;;2.13;0.70;;;;;;;;;;5054628;28;20497;-62
2024/04/01 00:10:46;;;;;;;3.28;1.10;;;;;;;;;;5050240;28;20049;-62
2024/04/01 00:13:13;;;;;;;3.88;0.80;;;;;;;;;;5053504;28;20048;-61
2024/04/01 00:15:39;;;;;;;2.03;0.80;;;;;;;;;;5050892;28;20054;-62
2024/04/01 00:18:07;;;;;;;0.88;0.52;;;;;;;;;;5052700;28;20045;-62
2024/04/01 00:20:34;;;;;;;1.58;0.75;;;;;;;;;;5055339;28;20053;-62
2024/04/01 00:23:02;;;;;;;1.50;0.80;;;;;;;;;;5054982;28;20060;-62
2024/04/01 00:25:28;;;;;;;1.88;0.70;;;;;;;;;;5052343;28;20060;-62
2024/04/01 00:27:54;;;;;;;1.83;0.75;;;;;;;;;;5050726;28;20478;-61
2024/04/01 00:30:20;;;;;;;2.78;0.90;;;;;;;;;;5053061;28;20053;-62
2024/04/01 00:32:47;;;;;;;1.35;0.75;;;;;;;;;;5049284;28;20044;-62
2024/04/01 00:35:15;;;;;;;1.85;0.63;;;;;;;;;;5054353;28;20478;-62
2024/04/01 00:37:42;;;;;;;4.43;1.08;;;;;;;;;;5048668;28;20056;-63
2024/04/01 00:40:08;;;;;;;2.03;0.73;;;;;;;;;;5053953;28;20045;-62
2024/04/01 00:42:35;;;;;;;2.42;0.77;;;;;;;;;;5055056;28;20045;-62
2024/04/01 00:45:01;;;;;;;1.52;0.60;;;;;;;;;;5055429;28;20057;-62
2024/04/01 00:47:28;;;;;;;4.55;0.70;;;;;;;;;;5046573;28;20114;-62
2024/04/01 00:49:54;;;;;;;2.55;0.60;;;;;;;;;;5054939;28;20053;-62
2024/04/01 00:52:22;;;;;;;2.47;0.60;;;;;;;;;;5055304;28;20115;-62
2024/04/01 00:54:49;;;;;;;0.93;0.50;;;;;;;;;;5054663;28;20513;-62
2024/04/01 00:57:16;;;;;;;2.30;0.65;;;;;;;;;;5046952;28;20401;-62
2024/04/01 00:59:42;;;;;;;1.20;0.60;;;;;;;;;;5055020;28;20057;-62
2024/04/01 01:02:12;;;;;;;1.20;0.60;;;;;;;;;;5046847;28;20048;-62
2024/04/01 01:04:38;;;;;;;0.90;0.60;;;;;;;;;;5054708;28;20056;-62
2024/04/01 01:07:05;;;;;;;2.33;0.60;;;;;;;;;;5046643;28;20049;-61
2024/04/01 01:09:32;;;;;;;3.13;0.82;;;;;;;;;;5054799;28;20088;-61
2024/04/01 01:11:59;;;;;;;2.42;0.52;;;;;;;;;;5046803;28;20368;-60
2024/04/01 01:14:25;;;;;;;3.13;0.80;;;;;;;;;;5054199;28;20048;-61
2024/04/01 01:16:52;;;;;;;2.20;0.95;;;;;;;;;;5046217;28;20051;-61
2024/04/01 01:19:19;;;;;;;1.55;0.70;;;;;;;;;;5054802;28;20514;-60
2024/04/01 01:21:45;;;;;;;4.10;0.80;;;;;;;;;;5046659;28;20041;-61
2024/04/01 01:24:12;;;;;;;1.52;0.70;;;;;;;;;;5054709;28;20060;-60
2024/04/01 01:26:39;;;;;;;1.73;0.70;;;;;;;;;;5046476;28;20060;-60
2024/04/01 01:29:05;;;;;;;1.50;0.70;;;;;;;;;;5054973;28;20057;-61
2024/04/01 01:31:32;;;;;;;2.60;0.98;;;;;;;;;;5046061;28;20137;-60
2024/04/01 01:33:58;;;;;;;1.48;0.57;;;;;;;;;;5054840;28;20060;-60
2024/04/01 01:36:25;;;;;;;2.95;0.85;;;;;;;;;;5045856;28;20057;-60
2024/04/01 01:38:51;;;;;;;1.90;0.70;;;;;;;;;;5054136;28;20071;-60
2024/04/01 01:41:19;;;;;;;2.08;0.70;;;;;;;;;;5053678;28;20048;-60
2024/04/01 01:43:45;;;;;;;1.42;0.68;;;;;;;;;;5054437;28;20501;-60
2024/04/01 01:46:11;;;;;;;1.60;0.70;;;;;;;;;;5045680;28;20049;-60
2024/04/01 01:48:37;;;;;;;1.70;0.85;;;;;;;;;;5054228;28;20076;-61
2024/04/01 01:51:04;;;;;;;2.80;1.00;;;;;;;;;;5053477;28;20045;-61
2024/04/01 01:53:30;;;;;;;2.78;1.08;;;;;;;;;;5054006;28;20057;-61
2024/04/01 01:55:57;;;;;;;2.50;1.15;;;;;;;;;;5046723;28;20049;-61
2024/04/01 01:58:24;;;;;;;2.67;1.08;;;;;;;;;;5052906;28;20057;-61
2024/04/01 02:00:51;;;;;;;2.53;1.20;;;;;;;;;;5053799;28;20080;-61
2024/04/01 02:03:17;;;;;;;3.15;1.10;;;;;;;;;;5053582;28;20406;-60
2024/04/01 02:05:43;;;;;;;2.55;1.20;;;;;;;;;;5048617;28;20056;-61
2024/04/01 02:08:09;;;;;;;2.20;1.08;;;;;;;;;;5050858;28;20049;-61
2024/04/01 02:10:36;;;;;;;4.05;1.30;;;;;;;;;;5048968;28;20085;-61
2024/04/01 02:13:04;;;;;;;3.13;1.30;;;;;;;;;;5049610;28;20064;-61
2024/04/01 02:15:32;;;;;;;1.45;0.80;;;;;;;;;;5049742;28;20049;-61
2024/04/01 02:17:58;;;;;;;2.45;1.10;;;;;;;;;;5048802;28;20060;-61
2024/04/01 02:20:25;;;;;;;2.03;0.95;;;;;;;;;;5050268;28;20061;-61
2024/04/01 02:22:52;;;;;;;4.22;1.13;;;;;;;;;;5048413;28;20052;-61
2024/04/01 02:25:19;;;;;;;3.38;1.20;;;;;;;;;;5051041;28;20413;-61
2024/04/01 02:27:44;;;;;;;3.60;1.20;;;;;;;;;;5047201;28;20486;-61
2024/04/01 02:30:11;;;;;;;2.67;0.90;;;;;;;;;;5051822;28;20088;-61
2024/04/01 02:32:38;;;;;;;2.28;0.93;;;;;;;;;;5045856;28;20075;-61
2024/04/01 02:35:06;;;;;;;2.97;1.02;;;;;;;;;;5052981;28;20056;-61
2024/04/01 02:37:31;;;;;;;2.28;1.10;;;;;;;;;;5044944;28;20053;-60
2024/04/01 02:39:58;;;;;;;2.22;0.90;;;;;;;;;;5052980;28;20094;-60
2024/04/01 02:42:24;;;;;;;2.83;1.10;;;;;;;;;;5053130;28;20403;-60
2024/04/01 02:44:51;;;;;;;2.50;0.98;;;;;;;;;;5052313;28;20053;-60
2024/04/01 02:47:18;;;;;;;2.75;1.00;;;;;;;;;;5052767;28;20135;-61
2024/04/01 02:49:47;;;;;;;2.30;1.08;;;;;;;;;;5053286;28;20064;-61
2024/04/01 02:52:13;;;;;;;2.10;0.93;;;;;;;;;;5052930;28;20049;-60
2024/04/01 02:54:39;;;;;;;1.50;0.80;;;;;;;;;;5052741;28;20573;-61
2024/04/01 02:57:06;;;;;;;2.47;1.00;;;;;;;;;;5044966;28;20066;-60
2024/04/01 02:59:33;;;;;;;2.28;0.90;;;;;;;;;;5052697;28;20049;-61
2024/04/01 03:01:59;;;;;;;4.47;0.80;;;;;;;;;;5043879;28;20060;-60
2024/04/01 03:04:26;;;;;;;2.08;0.80;;;;;;;;;;5052868;28;20053;-60
2024/04/01 03:06:55;;;;;;;3.03;0.98;;;;;;;;;;5044439;28;20053;-60
2024/04/01 03:09:21;;;;;;;2.13;0.90;;;;;;;;;;5052275;28;20052;-60
2024/04/01 03:11:47;;;;;;;2.42;1.00;;;;;;;;;;5044397;28;20463;-61
2024/04/01 03:14:13;;;;;;;2.47;0.93;;;;;;;;;;5052892;28;20052;-60
2024/04/01 03:16:40;;;;;;;1.83;1.00;;;;;;;;;;5044388;28;20061;-61
2024/04/01 03:19:06;;;;;;;4.13;1.20;;;;;;;;;;5052388;28;20049;-60
2024/04/01 03:21:32;;;;;;;5.30;1.20;;;;;;;;;;5044262;28;20053;-60
2024/04/01 03:24:00;;;;;;;6.28;1.30;;;;;;;;;;5052563;28;20479;-60
2024/04/01 03:26:26;;;;;;;2.25;0.93;;;;;;;;;;5044115;28;20060;-61
2024/04/01 03:28:52;;;;;;;2.85;1.10;;;;;;;;;;5051967;28;20064;-61
2024/04/01 03:31:19;;;;;;;2.08;1.23;;;;;;;;;;5052363;28;20060;-60
2024/04/01 03:33:45;;;;;;;2.70;1.30;;;;;;;;;;5052526;28;20060;-60
2024/04/01 03:36:11;;;;;;;2.63;1.17;;;;;;;;;;5044121;28;20046;-60
2024/04/01 03:38:38;;;;;;;2.00;0.88;;;;;;;;;;5052404;28;20048;-60
2024/04/01 03:41:06;;;;;;;1.77;0.88;;;;;;;;;;5044522;28;20045;-60
2024/04/01 03:43:34;;;;;;;3.60;1.15;;;;;;;;;;5052307;28;20509;-60
2024/04/01 03:46:01;;;;;;;2.08;0.90;;;;;;;;;;5044424;28;20415;-60
2024/04/01 03:48:28;;;;;;;4.07;1.30;;;;;;;;;;5051785;28;20057;-60
2024/04/01 03:50:54;;;;;;;3.45;1.52;;;;;;;;;;5052569;28;20417;-60
2024/04/01 03:53:21;;;;;;;2.35;1.08;;;;;;;;;;5051980;28;20049;-60
2024/04/01 03:55:48;;;;;;;3.53;1.20;;;;;;;;;;5046357;28;20053;-59
2024/04/01 03:58:15;;;;;;;2.20;1.00;;;;;;;;;;5050444;28;20053;-60
2024/04/01 04:00:42;;;;;;;2.60;0.98;;;;;;;;;;5046802;28;20061;-60
2024/04/01 04:03:08;;;;;;;2.20;0.88;;;;;;;;;;5049017;28;20060;-60
2024/04/01 04:05:35;;;;;;;4.93;1.15;;;;;;;;;;5047709;28;20045;-60
2024/04/01 04:08:01;;;;;;;2.10;0.82;;;;;;;;;;5048482;28;20053;-60
2024/04/01 04:10:28;;;;;;;3.20;0.98;;;;;;;;;;5051908;28;20132;-60
2024/04/01 04:12:55;;;;;;;1.88;0.93;;;;;;;;;;5051549;28;20509;-60
2024/04/01 04:15:23;;;;;;;3.45;1.10;;;;;;;;;;5053567;28;20045;-60
2024/04/01 04:17:49;;;;;;;1.77;1.00;;;;;;;;;;5050176;28;20053;-60
2024/04/01 04:20:16;;;;;;;2.60;0.93;;;;;;;;;;5053812;28;20482;-60
2024/04/01 04:22:44;;;;;;;2.03;1.10;;;;;;;;;;5048887;28;20056;-60
2024/04/01 04:25:12;;;;;;;3.58;1.05;;;;;;;;;;5054765;28;20052;-61
2024/04/01 04:27:37;;;;;;;2.40;1.00;;;;;;;;;;5048567;28;20517;-60
2024/04/01 04:30:05;;;;;;;2.08;0.80;;;;;;;;;;5055190;28;20052;-60
2024/04/01 04:32:33;;;;;;;3.60;1.02;;;;;;;;;;5055396;28;20375;-61
2024/04/01 04:34:59;;;;;;;2.85;1.00;;;;;;;;;;5055624;28;20053;-60
2024/04/01 04:37:26;;;;;;;3.60;1.25;;;;;;;;;;5047546;28;20060;-60
2024/04/01 04:39:52;;;;;;;2.92;1.00;;;;;;;;;;5055658;28;20045;-60
2024/04/01 04:42:18;;;;;;;2.53;1.20;;;;;;;;;;5047152;28;20509;-59
2024/04/01 04:44:45;;;;;;;4.07;1.20;;;;;;;;;;5055357;28;20045;-60
2024/04/01 04:47:11;;;;;;;1.80;1.30;;;;;;;;;;5046713;28;20315;-60
2024/04/01 04:49:39;;;;;;;2.38;1.15;;;;;;;;;;5055055;28;20522;-60
2024/04/01 04:52:05;;;;;;;2.65;1.10;;;;;;;;;;5055190;28;20045;-60
2024/04/01 04:54:32;;;;;;;3.28;1.17;;;;;;;;;;5055187;28;20053;-61
2024/04/01 04:56:59;;;;;;;2.13;1.00;;;;;;;;;;5054565;28;20056;-60
2024/04/01 04:59:25;;;;;;;4.55;1.10;;;;;;;;;;5055115;28;20398;-60
2024/04/01 05:01:52;;;;;;;5.18;1.25;;;;;;;;;;5054848;28;20045;-60
2024/04/01 05:04:17;;;;;;;3.15;0.85;;;;;;;;;;5054802;28;20509;-60
2024/04/01 05:06:46;;;;;;;3.33;1.10;;;;;;;;;;5046386;28;20085;-60
2024/04/01 05:09:11;;;;;;;4.82;1.17;;;;;;;;;;5054577;28;20056;-60
2024/04/01 05:11:38;;;;;;;4.50;1.30;;;;;;;;;;5046604;28;20060;-60
2024/04/01 05:14:04;;;;;;;2.28;1.33;;;;;;;;;;5054910;28;20060;-60
2024/04/01 05:16:31;;;;;;;3.45;1.27;;;;;;;;;;5046479;28;20127;-60
2024/04/01 05:18:56;;;;;;;2.88;1.00;;;;;;;;;;5055001;28;20463;-60
2024/04/01 05:21:23;;;;;;;2.47;1.30;;;;;;;;;;5046085;28;20061;-60
2024/04/01 05:23:52;;;;;;;2.50;1.25;;;;;;;;;;5054715;28;20064;-60
2024/04/01 05:26:19;;;;;;;3.90;1.30;;;;;;;;;;5045887;28;20057;-61
2024/04/01 05:28:45;;;;;;;3.15;1.30;;;;;;;;;;5054721;28;20482;-61
2024/04/01 05:31:12;;;;;;;2.25;1.20;;;;;;;;;;5045928;28;20132;-61
2024/04/01 05:33:37;;;;;;;3.67;1.40;;;;;;;;;;5053784;28;20410;-60
2024/04/01 05:36:05;;;;;;;2.88;1.55;;;;;;;;;;5045833;28;20057;-61
2024/04/01 05:38:30;;;;;;;3.35;1.40;;;;;;;;;;5046679;28;20379;-61
2024/04/01 05:40:58;;;;;;;4.80;1.50;;;;;;;;;;5047219;28;20092;-60
2024/04/01 05:43:24;;;;;;;2.30;1.42;;;;;;;;;;5053653;28;20056;-61
2024/04/01 05:45:51;;;;;;;3.50;1.60;;;;;;;;;;5047816;28;20049;-60
2024/04/01 05:48:17;;;;;;;2.13;1.50;;;;;;;;;;5051978;28;20076;-61
2024/04/01 05:50:48;;;;;;;3.30;1.55;;;;;;;;;;5054112;28;20049;-61
2024/04/01 05:53:14;;;;;;;3.72;1.60;;;;;;;;;;5053668;28;20485;-60
2024/04/01 05:55:41;;;;;;;3.47;1.48;;;;;;;;;;5048898;28;20132;-61
2024/04/01 05:58:08;;;;;;;3.45;1.67;;;;;;;;;;5050404;28;20053;-61
2024/04/01 06:00:36;;;;;;;3.13;1.70;;;;;;;;;;5053642;28;20049;-61
2024/04/01 06:03:01;;;;;;;2.45;1.70;;;;;;;;;;5053667;28;20052;-61
2024/04/01 06:05:28;;;;;;;2.92;1.55;;;;;;;;;;5053237;28;20053;-60
2024/04/01 06:07:54;;;;;;;3.25;1.83;;;;;;;;;;5053751;28;20056;-61
2024/04/01 06:10:21;;;;;;;3.83;1.80;;;;;;;;;;5051170;28;20505;-60
2024/04/01 06:12:47;;;;;;;3.53;1.90;;;;;;;;;;5047258;28;20045;-61
2024/04/01 06:15:15;;;;;;;4.05;1.77;;;;;;;;;;5051811;28;20056;-61
2024/04/01 06:17:41;;;;;;;2.65;1.85;;;;;;;;;;5045236;28;20053;-61
2024/04/01 06:20:10;;;;;;;3.67;1.67;;;;;;;;;;5052342;28;20118;-61
2024/04/01 06:22:36;;;;;;;2.38;1.48;;;;;;;;;;5045752;28;20056;-61
2024/04/01 06:25:03;;;;;;;5.55;1.88;;;;;;;;;;5052147;28;20131;-61
2024/04/01 06:27:29;;;;;;;3.90;1.77;;;;;;;;;;5052640;28;20083;-61
2024/04/01 06:29:56;;;;;;;4.05;1.58;;;;;;;;;;5052461;28;20092;-61
2024/04/01 06:32:23;;;;;;;4.25;1.90;;;;;;;;;;5043517;28;20053;-61
2024/04/01 06:34:50;;;;;;;4.22;2.03;;;;;;;;;;5052453;28;20053;-61
2024/04/01 06:37:16;;;;;;;3.70;2.13;;;;;;;;;;5044633;28;20398;-61
2024/04/01 06:39:43;;;;;;;5.28;1.90;;;;;;;;;;5052316;28;20090;-61
2024/04/01 06:42:09;;;;;;;5.22;2.05;;;;;;;;;;5044215;28;20344;-61
2024/04/01 06:44:36;;;;;;;4.35;2.10;;;;;;;;;;5052749;28;20060;-60
2024/04/01 06:47:02;;;;;;;3.00;1.92;;;;;;;;;;5044358;28;20057;-61
2024/04/01 06:49:30;;;;;;;2.70;1.60;;;;;;;;;;5052152;28;20045;-61
2024/04/01 06:51:56;;;;;;;4.18;1.80;;;;;;;;;;5053244;28;20056;-61
2024/04/01 06:54:22;;;;;;;3.20;1.90;;;;;;;;;;5052116;28;20454;-61
2024/04/01 06:56:48;;;;;;;3.08;1.60;;;;;;;;;;5044570;28;20391;-62
2024/04/01 06:59:15;;;;;;;2.97;1.77;;;;;;;;;;5051965;28;20059;-61
2024/04/01 07:01:41;;;;;;;4.03;1.98;;;;;;;;;;5052220;28;20057;-61
2024/04/01 07:04:08;;;;;;;4.63;1.90;;;;;;;;;;5052327;28;20055;-61
2024/04/01 07:06:35;;;;;;;3.80;2.10;;;;;;;;;;5044045;28;20053;-61
2024/04/01 07:09:02;;;;;;;4.40;2.10;;;;;;;;;;5052118;28;20072;-61
2024/04/01 07:11:28;;;;;;;3.38;1.92;;;;;;;;;;5043665;28;20063;-61
2024/04/01 07:13:55;;;;;;;3.85;2.08;;;;;;;;;;5051430;28;20049;-61
2024/04/01 07:16:21;;;;;;;3.70;2.00;;;;;;;;;;5043735;28;20061;-61
2024/04/01 07:18:47;;;;;;;3.70;1.63;;;;;;;;;;5052331;28;20094;-62
2024/04/01 07:21:13;;;;;;;2.65;1.70;;;;;;;;;;5043588;28;20055;-62
2024/04/01 07:23:41;;;;;;;4.57;1.83;;;;;;;;;;5051514;28;20052;-61
2024/04/01 07:26:07;;;;;;;3.85;2.42;;;;;;;;;;5044254;28;20411;-61
2024/04/01 07:28:34;;;;;;;3.10;1.80;;;;;;;;;;5052376;28;20049;-61
2024/04/01 07:31:03;;;;;;;5.15;2.10;;;;;;;;;;5044339;28;20056;-61
2024/04/01 07:33:30;;;;;;;3.05;1.95;;;;;;;;;;5043563;28;20056;-61
2024/04/01 07:35:56;;;;;;;2.80;1.52;;;;;;;;;;5045140;28;20497;-61
2024/04/01 07:38:22;;;;;;;3.03;1.50;;;;;;;;;;5050984;28;20049;-61
2024/04/01 07:40:50;;;;;;;2.83;1.40;;;;;;;;;;5046238;28;20054;-61
2024/04/01 07:43:16;;;;;;;2.60;1.55;;;;;;;;;;5050174;28;20398;-61
2024/04/01 07:45:43;;;;;;;2.58;1.60;;;;;;;;;;5046710;28;20050;-61
2024/04/01 07:48:10;;;;;;;3.30;1.80;;;;;;;;;;5048843;28;20386;-61
2024/04/01 07:50:36;;;;;;;4.38;1.70;;;;;;;;;;5055919;28;20060;-61
2024/04/01 07:53:02;;;;;;;2.58;1.48;;;;;;;;;;5055537;28;20045;-61
2024/04/01 07:55:28;;;;;;;3.85;1.40;;;;;;;;;;5052286;28;20076;-61
2024/04/01 07:57:56;;;;;;;4.30;1.83;;;;;;;;;;5050345;28;20053;-61
2024/04/01 08:00:22;;;;;;;4.63;1.83;;;;;;;;;;5053147;28;20521;-61
2024/04/01 08:02:49;;;;;;;4.28;1.70;;;;;;;;;;5049821;28;20128;-61
2024/04/01 08:05:15;;;;;;;2.95;1.50;;;;;;;;;;5053836;28;20056;-60
2024/04/01 08:07:42;;;;;;;3.63;1.70;;;;;;;;;;5048833;28;20502;-61
2024/04/01 08:10:08;;;;;;;3.50;1.55;;;;;;;;;;5054802;28;20053;-61
2024/04/01 08:12:34;;;;;;;3.97;1.55;;;;;;;;;;5047237;28;20132;-61
2024/04/01 08:15:02;;;;;;;4.07;1.40;;;;;;;;;;5055530;28;20052;-61
2024/04/01 08:17:29;;;;;;;3.75;1.60;;;;;;;;;;5046708;28;20053;-61
2024/04/01 08:19:55;;;;;;;4.28;1.63;;;;;;;;;;5055295;28;20411;-61
2024/04/01 08:22:22;;;;;;;3.28;1.70;;;;;;;;;;5047288;28;20367;-62
2024/04/01 08:24:48;;;;;;;4.03;1.50;;;;;;;;;;5055555;28;20064;-62
2024/04/01 08:27:16;;;;;;;3.20;1.67;;;;;;;;;;5046869;28;20119;-61
2024/04/01 08:29:42;;;;;;;3.05;1.95;;;;;;;;;;5055206;28;20049;-61
2024/04/01 08:32:10;;;;;;;3.17;1.67;;;;;;;;;;5046922;28;20048;-61
2024/04/01 08:34:36;;;;;;;17.67;12.25;;;;;;;;;;5054751;28;20056;-61
2024/04/01 08:37:03;;;;;;;8.05;6.18;;;;;;;;;;5046956;28;20395;-61
2024/04/01 08:39:29;;;;;;;3.42;2.50;;;;;;;;;;5054931;28;20430;-61
2024/04/01 08:41:56;;;;;;;3.40;2.05;;;;;;;;;;5046735;28;20144;-61
2024/04/01 08:44:23;;;;;;;2.63;1.88;;;;;;;;;;5054518;28;20049;-61
2024/04/01 08:46:51;;;;;;;3.33;1.95;;;;;;;;;;5046588;28;20072;-61
2024/04/01 08:49:20;;;;;;;3.65;1.65;;;;;;;;;;5054719;28;20049;-61
2024/04/01 08:51:47;;;;;;;4.55;2.50;;;;;;;;;;5055140;28;20068;-61
2024/04/01 08:54:13;;;;;;;3.65;2.10;;;;;;;;;;5054454;28;20045;-62
2024/04/01 08:56:40;;;;;;;5.78;2.15;;;;;;;;;;5046255;28;20092;-60
2024/04/01 08:59:07;;;;;;;4.82;2.50;;;;;;;;;;5054563;28;20053;-61
2024/04/01 09:01:34;;;;;;;4.15;2.00;;;;;;;;;;5045353;28;20375;-61
2024/04/01 09:04:00;;;;;;;3.38;2.20;;;;;;;;;;5054644;28;20361;-61
2024/04/01 09:06:29;;;;;;;4.43;2.30;;;;;;;;;;5046083;28;20055;-61
2024/04/01 09:08:55;;;;;;;4.00;2.28;;;;;;;;;;5054396;28;20060;-61
2024/04/01 09:11:22;;;;;;;4.65;2.30;;;;;;;;;;5054188;28;20376;-61
2024/04/01 09:13:49;;;;;;;3.55;2.20;;;;;;;;;;5054337;28;20060;-61
2024/04/01 09:16:20;;;;;;;5.90;2.85;;;;;;;;;;5046354;28;20058;-61
2024/04/01 09:18:46;;;;;;;6.78;3.97;;;;;;;;;;5054408;28;20064;-60
2024/04/01 09:21:13;;;;;;;3.83;2.20;;;;;;;;;;5045794;28;20485;-61
2024/04/01 09:23:42;;;;;;;3.15;2.20;;;;;;;;;;5053955;28;20490;-61
2024/04/01 09:26:08;;;;;;;3.60;2.25;;;;;;;;;;5046014;28;20429;-60
2024/04/01 09:28:34;;;;;;;4.28;2.20;;;;;;;;;;5054404;28;20053;-61
2024/04/01 09:31:01;;;;;;;3.55;2.33;;;;;;;;;;5045781;28;20095;-60
2024/04/01 09:33:27;;;;;;;3.17;2.30;;;;;;;;;;5053432;28;20143;-61
2024/04/01 09:35:54;;;;;;;3.83;2.22;;;;;;;;;;5046539;28;20053;-60
2024/04/01 09:38:20;;;;;;;2.65;2.08;;;;;;;;;;5052673;28;20052;-59
2024/04/01 09:40:50;;;;;;;3.05;2.20;;;;;;;;;;5048093;28;20054;-60
2024/04/01 09:43:22;;;;;;;3.08;2.40;;;;;;;;;;5051878;28;20048;-60
2024/04/01 09:45:49;;;;;;;4.32;2.42;;;;;;;;;;5047680;28;20374;-60
2024/04/01 09:48:15;;;;;;;4.78;2.70;;;;;;;;;;5051051;28;20064;-60
2024/04/01 09:50:42;;;;;;;3.80;2.65;;;;;;;;;;5053356;28;20075;-60
2024/04/01 09:53:08;;;;;;;3.15;2.80;;;;;;;;;;5053181;28;20055;-60
2024/04/01 09:55:37;;;;;;;3.90;2.75;;;;;;;;;;5049893;28;20053;-60
2024/04/01 09:58:23;;;;;;;4.13;3.00;;;;;;;;;;5049864;28;20049;-61
2024/04/01 10:00:52;;;;;;;3.63;3.22;;;;;;;;;;5053652;28;20060;-60
2024/04/01 10:03:42;;;;;;;3.67;2.92;;;;;;;;;;5054044;28;20052;-60
2024/04/01 10:06:32;;;;;;;5.43;3.72;;;;;;;;;;5053272;28;20049;-60
2024/04/01 10:09:22;;;;;;;5.03;4.38;;;;;;;;;;5053298;28;20052;-60
2024/04/01 10:11:49;;;;;;;;;;;;;;;;;;4994815;28;20488;-61
2024/04/01 10:14:41;;;;;;;5.72;5.13;;;;;;;;;;5052105;28;19920;-60
2024/04/01 10:17:22;;;;;;;7.38;5.93;;;;;;;;;;5001476;28;20388;-60
2024/04/01 10:20:03;;;;;;;7.63;6.55;;;;;;;;;;5053283;28;20055;-60
2024/04/01 10:22:55;;;;;;;7.50;6.70;;;;;;;;;;5053273;28;20060;-63
2024/04/01 10:25:38;;;;;;;6.78;6.07;;;;;;;;;;5051772;28;20076;-60
2024/04/01 10:28:23;;;;;;;7.03;6.30;;;;;;;;;;5049015;28;20052;-60
2024/04/01 10:31:02;;;;;;;7.82;6.75;;;;;;;;;;5046256;28;20058;-60
2024/04/01 10:33:53;;;;;;;8.30;7.30;;;;;;;;;;5052305;28;20076;-60
2024/04/01 10:36:31;;;;;;;7.95;7.15;;;;;;;;;;5045055;28;20067;-59
2024/04/01 10:39:17;;;;;;;8.00;7.20;;;;;;;;;;5053654;28;20166;-59
2024/04/01 10:42:00;;;;;;;7.45;6.63;;;;;;;;;;5044298;28;20049;-60
2024/04/01 10:44:41;;;;;;;7.40;5.63;;;;;;;;;;5052691;28;20049;-59
2024/04/01 10:47:22;;;;;;;6.78;6.07;;;;;;;;;;5043627;28;20078;-60
2024/04/01 10:50:00;;;;;;;6.80;6.10;;;;;;;;;;5052296;28;20465;-59
2024/04/01 10:52:37;;;;;;;6.10;5.50;;;;;;;;;;5052341;28;20061;-59
2024/04/01 10:55:17;;;;;;;5.65;5.05;;;;;;;;;;5052404;28;20048;-59
2024/04/01 10:57:54;;;;;;;6.75;5.20;;;;;;;;;;5052398;28;20063;-59
2024/04/01 11:00:42;;;;;;;4.75;4.32;;;;;;;;;;5050078;28;20498;-59
2024/04/01 11:03:25;;;;;;;5.70;4.95;;;;;;;;;;5042235;28;20057;-59
2024/04/01 11:06:10;;;;;;;5.13;4.28;;;;;;;;;;5045796;28;20056;-59
2024/04/01 11:08:41;;;;;;;6.00;5.00;;;;;;;;;;5044651;28;20053;-60
2024/04/01 11:11:15;;;;;;;5.50;4.80;;;;;;;;;;5052096;28;20049;-60
2024/04/01 11:13:42;;;;;;;6.35;5.72;;;;;;;;;;5051898;28;20052;-60
2024/04/01 11:16:09;;;;;;;7.97;7.28;;;;;;;;;;5043801;28;20060;-60
2024/04/01 11:18:39;;;;;;;8.52;7.72;;;;;;;;;;5051798;28;20394;-59
2024/04/01 11:21:12;;;;;;;8.25;7.55;;;;;;;;;;5043620;28;20050;-60
2024/04/01 11:23:44;;;;;;;9.98;9.07;;;;;;;;;;5051000;28;20071;-60
2024/04/01 11:26:18;;;;;;;10.00;9.10;;;;;;;;;;5043632;28;20053;-60
2024/04/01 11:28:52;;;;;;;10.32;9.43;;;;;;;;;;5051764;28;20053;-60
2024/04/01 11:31:19;;;;;;;9.95;9.05;;;;;;;;;;5043694;28;20467;-60
2024/04/01 11:33:51;;;;;;;9.18;8.38;;;;;;;;;;5051816;28;20116;-60
2024/04/01 11:36:26;;;;;;;9.55;8.75;;;;;;;;;;5043275;28;20050;-59
2024/04/01 11:39:03;;;;;;;7.93;7.22;;;;;;;;;;5051728;28;20052;-59
2024/04/01 11:41:30;;;;;;;7.30;6.63;;;;;;;;;;5043621;28;20056;-59
2024/04/01 11:43:56;;;;;;;7.00;6.30;;;;;;;;;;5051867;28;20052;-59
2024/04/01 11:46:23;;;;;;;8.00;7.25;;;;;;;;;;5043216;28;20467;-60
2024/04/01 11:48:53;;;;;;;7.32;6.68;;;;;;;;;;5051985;28;20049;-59
2024/04/01 11:51:30;;;;;;;6.88;6.28;;;;;;;;;;5051388;28;20064;-59
2024/04/01 11:53:56;;;;;;;5.72;5.15;;;;;;;;;;5051520;28;20053;-59
2024/04/01 11:56:36;;;;;;;5.88;5.32;;;;;;;;;;5043597;28;20071;-60
2024/04/01 11:59:02;;;;;;;5.80;5.30;;;;;;;;;;5052577;28;20057;-59
2024/04/01 12:01:31;;;;;;;6.72;6.13;;;;;;;;;;5044642;28;20482;-59
2024/04/01 12:03:57;;;;;;;6.88;6.18;;;;;;;;;;5052233;28;20060;-59
2024/04/01 12:06:27;;;;;;;6.35;5.75;;;;;;;;;;5043928;28;20076;-59
2024/04/01 12:08:56;;;;;;;6.43;5.82;;;;;;;;;;5052168;28;20526;-60
2024/04/01 12:11:23;;;;;;;7.30;6.55;;;;;;;;;;5052208;28;20052;-60
2024/04/01 12:13:48;;;;;;;6.53;5.93;;;;;;;;;;5051753;28;20048;-60
2024/04/01 12:16:16;;;;;;;6.80;6.20;;;;;;;;;;5043273;28;20052;-60
2024/04/01 12:18:42;;;;;;;7.85;7.05;;;;;;;;;;5051375;28;20062;-60
2024/04/01 12:21:09;;;;;;;9.00;8.10;;;;;;;;;;5043521;28;20046;-60
2024/04/01 12:23:37;;;;;;;9.65;8.65;;;;;;;;;;5051968;28;20049;-60
2024/04/01 12:26:10;;;;;;;10.20;9.20;;;;;;;;;;5044905;28;20041;-61
2024/04/01 12:28:36;;;;;;;11.85;10.65;;;;;;;;;;5044322;28;20049;-60
2024/04/01 12:31:04;;;;;;;11.18;10.07;;;;;;;;;;5044766;28;20053;-60
2024/04/01 12:33:30;;;;;;;11.48;10.30;;;;;;;;;;5052134;28;20057;-60
2024/04/01 12:35:57;;;;;;;12.35;11.15;;;;;;;;;;5046942;28;20048;-60
2024/04/01 12:38:23;;;;;;;11.30;10.30;;;;;;;;;;5054198;28;20423;-60
2024/04/01 12:40:51;;;;;;;11.57;10.38;;;;;;;;;;5049079;28;20049;-59
2024/04/01 12:43:21;;;;;;;11.57;10.48;;;;;;;;;;5052858;28;20060;-61
2024/04/01 12:45:48;;;;;;;10.63;9.63;;;;;;;;;;5054385;28;20056;-60
2024/04/01 12:48:15;;;;;;;10.60;9.50;;;;;;;;;;5054920;28;20057;-60
2024/04/01 12:50:43;;;;;;;10.27;9.27;;;;;;;;;;5054912;28;20059;-60
2024/04/01 12:53:20;;;;;;;8.52;7.75;;;;;;;;;;5055426;28;20057;-60
2024/04/01 12:55:48;;;;;;;7.78;7.00;;;;;;;;;;5049021;28;20383;-60
2024/04/01 12:58:16;;;;;;;8.00;7.20;;;;;;;;;;5052075;28;20053;-60
2024/04/01 13:00:49;;;;;;;9.18;8.27;;;;;;;;;;5049357;28;20053;-59
2024/04/01 13:03:44;;;;;;;9.73;8.82;;;;;;;;;;5052532;28;20059;-59
2024/04/01 13:06:18;;;;;;;7.45;6.65;;;;;;;;;;5046536;28;20049;-59
2024/04/01 13:08:57;;;;;;;7.93;6.88;;;;;;;;;;5054635;28;20052;-59
2024/04/01 13:11:33;;;;;;;7.35;6.65;;;;;;;;;;5046382;28;20502;-59
2024/04/01 13:14:08;;;;;;;7.25;6.60;;;;;;;;;;5055034;28;20053;-61
2024/04/01 13:16:40;;;;;;;7.57;6.88;;;;;;;;;;5054775;28;20052;-59
2024/04/01 13:19:09;;;;;;;7.80;6.70;;;;;;;;;;5046912;28;20060;-59
2024/04/01 13:21:40;;;;;;;6.43;5.50;;;;;;;;;;5054489;28;20494;-59
2024/04/01 13:24:08;;;;;;;5.55;5.05;;;;;;;;;;5046109;28;20056;-59
2024/04/01 13:26:39;;;;;;;5.70;5.10;;;;;;;;;;5053381;28;20048;-60
2024/04/01 13:29:09;;;;;;;5.30;4.20;;;;;;;;;;5045513;28;20048;-59
2024/04/01 13:31:41;;;;;;;4.82;3.95;;;;;;;;;;5053288;28;20053;-60
2024/04/01 13:34:23;;;;;;;4.78;3.17;;;;;;;;;;5045749;28;20378;-59
2024/04/01 13:36:55;;;;;;;4.88;2.92;;;;;;;;;;5053801;28;20059;-60
2024/04/01 13:39:26;;;;;;;5.75;2.90;;;;;;;;;;5046140;28;20052;-60
2024/04/01 13:41:56;;;;;;;7.00;2.38;;;;;;;;;;5053812;28;20056;-60
2024/04/01 13:44:27;;;;;;;3.25;2.00;;;;;;;;;;5045695;28;20068;-61
2024/04/01 13:47:03;;;;;;;3.80;2.03;;;;;;;;;;5052422;28;20071;-61
2024/04/01 13:49:38;;;;;;;4.97;2.30;;;;;;;;;;5053150;28;20059;-61
2024/04/01 13:52:09;;;;;;;4.68;2.00;;;;;;;;;;5053615;28;20066;-60
2024/04/01 13:54:38;;;;;;;4.90;2.20;;;;;;;;;;5053420;28;20135;-61
2024/04/01 13:57:12;;;;;;;7.90;3.03;;;;;;;;;;5053691;28;20060;-61
2024/04/01 13:59:44;;;;;;;4.28;2.17;;;;;;;;;;5053742;28;20056;-60
2024/04/01 14:02:22;;;;;;;4.70;1.95;;;;;;;;;;5052377;28;20068;-60
2024/04/01 14:04:53;;;;;;;2.97;1.73;;;;;;;;;;5047896;28;20368;-60
2024/04/01 14:07:26;;;;;;;6.07;2.28;;;;;;;;;;5051041;28;20068;-60
2024/04/01 14:09:58;;;;;;;4.57;1.80;;;;;;;;;;5048114;28;20060;-60
2024/04/01 14:12:32;;;;;;;3.58;2.00;;;;;;;;;;5050135;28;20053;-60
2024/04/01 14:15:02;;;;;;;5.32;2.10;;;;;;;;;;5048699;28;20060;-60
2024/04/01 14:17:40;;;;;;;4.28;1.88;;;;;;;;;;5049279;28;20061;-60
2024/04/01 14:20:06;;;;;;;2.67;1.65;;;;;;;;;;5049831;28;20052;-60
2024/04/01 14:22:33;;;;;;;5.05;1.98;;;;;;;;;;5048968;28;20386;-59
2024/04/01 14:25:00;;;;;;;3.97;2.20;;;;;;;;;;5048902;28;20049;-59
2024/04/01 14:27:28;;;;;;;3.00;1.90;;;;;;;;;;5049481;28;20395;-60
2024/04/01 14:29:53;;;;;;;4.00;2.20;;;;;;;;;;5047634;28;20430;-59
2024/04/01 14:32:20;;;;;;;5.10;2.10;;;;;;;;;;5050569;28;20056;-59
2024/04/01 14:34:47;;;;;;;7.30;2.28;;;;;;;;;;5046273;28;20052;-59
2024/04/01 14:37:14;;;;;;;4.45;2.30;;;;;;;;;;5051320;28;20064;-60
2024/04/01 14:39:41;;;;;;;3.28;2.00;;;;;;;;;;5046047;28;20478;-59
2024/04/01 14:42:08;;;;;;;3.63;2.03;;;;;;;;;;5051793;28;20049;-59
2024/04/01 14:44:34;;;;;;;5.07;2.50;;;;;;;;;;5044533;28;20049;-59
2024/04/01 14:47:01;;;;;;;4.88;2.17;;;;;;;;;;5052057;28;20052;-60
2024/04/01 14:49:28;;;;;;;2.90;1.80;;;;;;;;;;5052877;28;20052;-59
2024/04/01 14:51:56;;;;;;;3.95;2.00;;;;;;;;;;5052144;28;20486;-59